sensor_id;sensor_type;location;lat;lon;timestamp;P1;durP1;ratioP1;P2;durP2;ratioP2
83125;SDS011;73488;47.234;-1.540;2024-03-06T00:01:56;6.40;;;2.58;;
83125;SDS011;73488;47.234;-1.540;2024-03-06T00:04:21;6.85;;;2.30;;
83125;SDS011;73488;47.234;-1.540;2024-03-06T00:06:47;6.00;;;2.60;;
83125;SDS011;73488;47.234;-1.540;2024-03-06T00:09:12;5.78;;;2.45;;
83125;SDS011;73488;47.234;-1.540;2024-03-06T00:11:37;5.95;;;2.75;;
83125;SDS011;73488;47.234;-1.540;2024-03-06T00:14:03;5.28;;;2.78;;
83125;SDS011;73488;47.234;-1.540;2024-03-06T00:16:30;5.45;;;2.53;;
83125;SDS011;73488;47.234;-1.540;2024-03-06T00:18:56;5.35;;;2.50;;
83125;SDS011;73488;47.234;-1.540;2024-03-06T00:21:21;6.25;;;2.95;;
83125;SDS011;73488;47.234;-1.540;2024-03-06T00:23:47;5.32;;;2.55;;
83125;SDS011;73488;47.234;-1.540;2024-03-06T00:26:12;4.43;;;2.45;;
83125;SDS011;73488;47.234;-1.540;2024-03-06T00:28:38;6.53;;;2.42;;
83125;SDS011;73488;47.234;-1.540;2024-03-06T00:31:07;5.07;;;2.08;;
83125;SDS011;73488;47.234;-1.540;2024-03-06T00:36:19;6.65;;;2.30;;
83125;SDS011;73488;47.234;-1.540;2024-03-06T00:38:45;4.85;;;2.00;;
83125;SDS011;73488;47.234;-1.540;2024-03-06T00:41:10;5.70;;;2.40;;
83125;SDS011;73488;47.234;-1.540;2024-03-06T00:43:51;5.40;;;2.47;;
83125;SDS011;73488;47.234;-1.540;2024-03-06T00:48:41;8.48;;;2.55;;
83125;SDS011;73488;47.234;-1.540;2024-03-06T00:51:07;4.95;;;2.38;;
83125;SDS011;73488;47.234;-1.540;2024-03-06T00:53:32;6.28;;;2.70;;
83125;SDS011;73488;47.234;-1.540;2024-03-06T00:55:59;4.10;;;1.73;;
83125;SDS011;73488;47.234;-1.540;2024-03-06T00:58:25;4.68;;;2.40;;
83125;SDS011;73488;47.234;-1.540;2024-03-06T01:00:50;4.78;;;2.05;;
83125;SDS011;73488;47.234;-1.540;2024-03-06T01:03:15;5.45;;;2.10;;
83125;SDS011;73488;47.234;-1.540;2024-03-06T01:05:41;5.03;;;2.00;;
83125;SDS011;73488;47.234;-1.540;2024-03-06T01:08:06;6.07;;;2.20;;
83125;SDS011;73488;47.234;-1.540;2024-03-06T01:10:32;5.65;;;2.50;;
83125;SDS011;73488;47.234;-1.540;2024-03-06T01:12:57;5.55;;;2.30;;
83125;SDS011;73488;47.234;-1.540;2024-03-06T01:15:23;5.93;;;2.03;;
83125;SDS011;73488;47.234;-1.540;2024-03-06T01:17:48;5.28;;;1.77;;
83125;SDS011;73488;47.234;-1.540;2024-03-06T01:20:14;4.20;;;2.00;;
83125;SDS011;73488;47.234;-1.540;2024-03-06T01:22:40;4.38;;;2.20;;
83125;SDS011;73488;47.234;-1.540;2024-03-06T01:25:06;5.50;;;2.65;;
83125;SDS011;73488;47.234;-1.540;2024-03-06T01:27:32;6.05;;;2.70;;
83125;SDS011;73488;47.234;-1.540;2024-03-06T01:29:57;6.22;;;2.15;;
83125;SDS011;73488;47.234;-1.540;2024-03-06T01:32:23;5.45;;;2.47;;
83125;SDS011;73488;47.234;-1.540;2024-03-06T01:34:48;4.68;;;2.03;;
83125;SDS011;73488;47.234;-1.540;2024-03-06T01:37:13;8.02;;;2.63;;
83125;SDS011;73488;47.234;-1.540;2024-03-06T01:39:39;2.92;;;1.95;;
83125;SDS011;73488;47.234;-1.540;2024-03-06T01:42:04;4.93;;;2.08;;
83125;SDS011;73488;47.234;-1.540;2024-03-06T01:44:29;5.18;;;2.40;;
83125;SDS011;73488;47.234;-1.540;2024-03-06T01:46:55;3.17;;;1.83;;
83125;SDS011;73488;47.234;-1.540;2024-03-06T01:49:21;5.50;;;2.63;;
83125;SDS011;73488;47.234;-1.540;2024-03-06T01:51:50;6.07;;;2.58;;
83125;SDS011;73488;47.234;-1.540;2024-03-06T01:54:18;4.78;;;2.42;;
83125;SDS011;73488;47.234;-1.540;2024-03-06T01:56:45;5.25;;;1.95;;
83125;SDS011;73488;47.234;-1.540;2024-03-06T01:59:15;5.90;;;2.45;;
83125;SDS011;73488;47.234;-1.540;2024-03-06T02:01:41;3.95;;;1.90;;
83125;SDS011;73488;47.234;-1.540;2024-03-06T02:04:07;5.95;;;2.28;;
83125;SDS011;73488;47.234;-1.540;2024-03-06T02:06:35;4.00;;;2.03;;
83125;SDS011;73488;47.234;-1.540;2024-03-06T02:09:00;5.30;;;2.40;;
83125;SDS011;73488;47.234;-1.540;2024-03-06T02:11:26;4.82;;;2.03;;
83125;SDS011;73488;47.234;-1.540;2024-03-06T02:13:53;6.57;;;2.33;;
83125;SDS011;73488;47.234;-1.540;2024-03-06T02:16:18;5.40;;;2.13;;
83125;SDS011;73488;47.234;-1.540;2024-03-06T02:21:19;5.43;;;2.15;;
83125;SDS011;73488;47.234;-1.540;2024-03-06T02:23:48;4.53;;;1.80;;
83125;SDS011;73488;47.234;-1.540;2024-03-06T02:26:16;6.30;;;2.55;;
83125;SDS011;73488;47.234;-1.540;2024-03-06T02:28:48;5.43;;;1.77;;
83125;SDS011;73488;47.234;-1.540;2024-03-06T02:31:14;6.13;;;2.22;;
83125;SDS011;73488;47.234;-1.540;2024-03-06T02:33:40;4.30;;;1.88;;
83125;SDS011;73488;47.234;-1.540;2024-03-06T02:36:05;5.60;;;2.25;;
83125;SDS011;73488;47.234;-1.540;2024-03-06T02:38:31;4.38;;;1.95;;
83125;SDS011;73488;47.234;-1.540;2024-03-06T02:40:56;4.65;;;1.83;;
83125;SDS011;73488;47.234;-1.540;2024-03-06T02:43:21;5.10;;;2.33;;
83125;SDS011;73488;47.234;-1.540;2024-03-06T02:45:47;3.58;;;2.08;;
83125;SDS011;73488;47.234;-1.540;2024-03-06T02:48:12;3.30;;;2.05;;
83125;SDS011;73488;47.234;-1.540;2024-03-06T02:50:38;3.60;;;2.17;;
83125;SDS011;73488;47.234;-1.540;2024-03-06T02:53:03;3.50;;;2.05;;
83125;SDS011;73488;47.234;-1.540;2024-03-06T02:55:30;4.75;;;2.05;;
83125;SDS011;73488;47.234;-1.540;2024-03-06T02:57:55;4.57;;;2.17;;
83125;SDS011;73488;47.234;-1.540;2024-03-06T03:00:20;4.22;;;1.92;;
83125;SDS011;73488;47.234;-1.540;2024-03-06T03:02:47;4.78;;;2.15;;
83125;SDS011;73488;47.234;-1.540;2024-03-06T03:05:12;5.43;;;2.40;;
83125;SDS011;73488;47.234;-1.540;2024-03-06T03:07:37;4.60;;;2.35;;
83125;SDS011;73488;47.234;-1.540;2024-03-06T03:10:03;4.50;;;2.30;;
83125;SDS011;73488;47.234;-1.540;2024-03-06T03:12:29;4.50;;;2.15;;
83125;SDS011;73488;47.234;-1.540;2024-03-06T03:14:55;5.32;;;2.45;;
83125;SDS011;73488;47.234;-1.540;2024-03-06T03:17:20;5.70;;;2.30;;
83125;SDS011;73488;47.234;-1.540;2024-03-06T03:19:45;3.55;;;2.05;;
83125;SDS011;73488;47.234;-1.540;2024-03-06T03:22:11;4.93;;;2.05;;
83125;SDS011;73488;47.234;-1.540;2024-03-06T03:24:36;4.57;;;2.28;;
83125;SDS011;73488;47.234;-1.540;2024-03-06T03:27:02;4.30;;;1.80;;
83125;SDS011;73488;47.234;-1.540;2024-03-06T03:29:28;4.78;;;2.25;;
83125;SDS011;73488;47.234;-1.540;2024-03-06T03:31:54;3.92;;;2.05;;
83125;SDS011;73488;47.234;-1.540;2024-03-06T03:34:20;4.70;;;2.78;;
83125;SDS011;73488;47.234;-1.540;2024-03-06T03:36:46;4.07;;;2.03;;
83125;SDS011;73488;47.234;-1.540;2024-03-06T03:39:12;3.30;;;1.90;;
83125;SDS011;73488;47.234;-1.540;2024-03-06T03:41:44;3.65;;;1.90;;
83125;SDS011;73488;47.234;-1.540;2024-03-06T03:44:16;7.07;;;2.20;;
83125;SDS011;73488;47.234;-1.540;2024-03-06T03:46:42;4.28;;;1.70;;
83125;SDS011;73488;47.234;-1.540;2024-03-06T03:49:08;3.90;;;2.15;;
83125;SDS011;73488;47.234;-1.540;2024-03-06T03:51:34;5.97;;;2.03;;
83125;SDS011;73488;47.234;-1.540;2024-03-06T03:54:00;6.22;;;2.30;;
83125;SDS011;73488;47.234;-1.540;2024-03-06T03:56:26;4.70;;;2.05;;
83125;SDS011;73488;47.234;-1.540;2024-03-06T03:58:51;5.07;;;1.80;;
83125;SDS011;73488;47.234;-1.540;2024-03-06T04:01:16;6.00;;;2.60;;
83125;SDS011;73488;47.234;-1.540;2024-03-06T04:03:42;4.53;;;2.25;;
83125;SDS011;73488;47.234;-1.540;2024-03-06T04:06:09;5.28;;;2.20;;
83125;SDS011;73488;47.234;-1.540;2024-03-06T04:08:35;4.90;;;2.33;;
83125;SDS011;73488;47.234;-1.540;2024-03-06T04:11:00;4.72;;;1.95;;
83125;SDS011;73488;47.234;-1.540;2024-03-06T04:13:26;2.53;;;1.70;;
83125;SDS011;73488;47.234;-1.540;2024-03-06T04:15:51;4.22;;;2.08;;
83125;SDS011;73488;47.234;-1.540;2024-03-06T04:18:16;5.18;;;2.15;;
83125;SDS011;73488;47.234;-1.540;2024-03-06T04:20:42;4.93;;;2.13;;
83125;SDS011;73488;47.234;-1.540;2024-03-06T04:23:07;4.40;;;2.13;;
83125;SDS011;73488;47.234;-1.540;2024-03-06T04:25:33;4.55;;;2.40;;
83125;SDS011;73488;47.234;-1.540;2024-03-06T04:27:58;5.60;;;2.15;;
83125;SDS011;73488;47.234;-1.540;2024-03-06T04:30:24;4.78;;;2.30;;
83125;SDS011;73488;47.234;-1.540;2024-03-06T04:32:50;4.97;;;2.13;;
83125;SDS011;73488;47.234;-1.540;2024-03-06T04:35:15;3.88;;;2.22;;
83125;SDS011;73488;47.234;-1.540;2024-03-06T04:37:41;3.33;;;2.47;;
83125;SDS011;73488;47.234;-1.540;2024-03-06T04:40:07;4.18;;;2.10;;
83125;SDS011;73488;47.234;-1.540;2024-03-06T04:42:35;3.88;;;1.92;;
83125;SDS011;73488;47.234;-1.540;2024-03-06T04:45:09;4.45;;;2.03;;
83125;SDS011;73488;47.234;-1.540;2024-03-06T04:47:36;4.43;;;2.03;;
83125;SDS011;73488;47.234;-1.540;2024-03-06T04:50:01;3.75;;;1.95;;
83125;SDS011;73488;47.234;-1.540;2024-03-06T04:52:27;6.60;;;2.10;;
83125;SDS011;73488;47.234;-1.540;2024-03-06T04:54:52;3.60;;;1.83;;
83125;SDS011;73488;47.234;-1.540;2024-03-06T04:57:17;5.03;;;1.60;;
83125;SDS011;73488;47.234;-1.540;2024-03-06T04:59:43;5.20;;;2.10;;
83125;SDS011;73488;47.234;-1.540;2024-03-06T05:02:09;3.72;;;1.92;;
83125;SDS011;73488;47.234;-1.540;2024-03-06T05:04:35;4.93;;;2.38;;
83125;SDS011;73488;47.234;-1.540;2024-03-06T05:07:01;3.95;;;1.90;;
83125;SDS011;73488;47.234;-1.540;2024-03-06T05:09:26;4.30;;;2.33;;
83125;SDS011;73488;47.234;-1.540;2024-03-06T05:11:52;4.32;;;2.20;;
83125;SDS011;73488;47.234;-1.540;2024-03-06T05:14:17;4.03;;;1.88;;
83125;SDS011;73488;47.234;-1.540;2024-03-06T05:16:42;3.83;;;1.92;;
83125;SDS011;73488;47.234;-1.540;2024-03-06T05:19:08;3.60;;;2.05;;
83125;SDS011;73488;47.234;-1.540;2024-03-06T05:21:35;5.35;;;2.47;;
83125;SDS011;73488;47.234;-1.540;2024-03-06T05:24:01;3.15;;;2.08;;
83125;SDS011;73488;47.234;-1.540;2024-03-06T05:26:27;4.82;;;1.98;;
83125;SDS011;73488;47.234;-1.540;2024-03-06T05:28:52;3.85;;;2.17;;
83125;SDS011;73488;47.234;-1.540;2024-03-06T05:31:19;5.63;;;2.17;;
83125;SDS011;73488;47.234;-1.540;2024-03-06T05:33:47;4.53;;;2.30;;
83125;SDS011;73488;47.234;-1.540;2024-03-06T05:36:14;6.07;;;2.17;;
83125;SDS011;73488;47.234;-1.540;2024-03-06T05:38:40;3.10;;;1.58;;
83125;SDS011;73488;47.234;-1.540;2024-03-06T05:41:06;3.50;;;1.92;;
83125;SDS011;73488;47.234;-1.540;2024-03-06T05:43:32;5.25;;;2.40;;
83125;SDS011;73488;47.234;-1.540;2024-03-06T05:45:57;4.13;;;1.95;;
83125;SDS011;73488;47.234;-1.540;2024-03-06T05:48:22;4.07;;;2.25;;
83125;SDS011;73488;47.234;-1.540;2024-03-06T05:50:49;5.13;;;2.00;;
83125;SDS011;73488;47.234;-1.540;2024-03-06T05:53:14;3.70;;;2.10;;
83125;SDS011;73488;47.234;-1.540;2024-03-06T05:55:40;3.92;;;2.50;;
83125;SDS011;73488;47.234;-1.540;2024-03-06T05:58:05;4.95;;;2.08;;
83125;SDS011;73488;47.234;-1.540;2024-03-06T06:00:30;3.03;;;1.48;;
83125;SDS011;73488;47.234;-1.540;2024-03-06T06:02:56;4.53;;;1.95;;
83125;SDS011;73488;47.234;-1.540;2024-03-06T06:05:21;4.68;;;2.17;;
83125;SDS011;73488;47.234;-1.540;2024-03-06T06:07:48;2.95;;;1.98;;
83125;SDS011;73488;47.234;-1.540;2024-03-06T06:10:14;3.92;;;1.77;;
83125;SDS011;73488;47.234;-1.540;2024-03-06T06:12:39;2.78;;;1.90;;
83125;SDS011;73488;47.234;-1.540;2024-03-06T06:15:06;4.63;;;2.08;;
83125;SDS011;73488;47.234;-1.540;2024-03-06T06:17:32;3.42;;;2.25;;
83125;SDS011;73488;47.234;-1.540;2024-03-06T06:19:58;2.53;;;2.03;;
83125;SDS011;73488;47.234;-1.540;2024-03-06T06:22:26;3.17;;;1.80;;
83125;SDS011;73488;47.234;-1.540;2024-03-06T06:24:52;4.82;;;2.55;;
83125;SDS011;73488;47.234;-1.540;2024-03-06T06:27:20;3.35;;;1.83;;
83125;SDS011;73488;47.234;-1.540;2024-03-06T06:29:45;3.38;;;1.67;;
83125;SDS011;73488;47.234;-1.540;2024-03-06T06:32:11;4.35;;;1.80;;
83125;SDS011;73488;47.234;-1.540;2024-03-06T06:34:36;2.50;;;1.85;;
83125;SDS011;73488;47.234;-1.540;2024-03-06T06:37:01;3.50;;;1.73;;
83125;SDS011;73488;47.234;-1.540;2024-03-06T06:39:27;4.60;;;1.90;;
83125;SDS011;73488;47.234;-1.540;2024-03-06T06:41:52;5.53;;;2.15;;
83125;SDS011;73488;47.234;-1.540;2024-03-06T06:44:18;9.00;;;4.18;;
83125;SDS011;73488;47.234;-1.540;2024-03-06T06:46:43;8.10;;;3.55;;
83125;SDS011;73488;47.234;-1.540;2024-03-06T06:49:08;8.15;;;4.18;;
83125;SDS011;73488;47.234;-1.540;2024-03-06T06:51:34;8.07;;;3.67;;
83125;SDS011;73488;47.234;-1.540;2024-03-06T06:54:00;9.77;;;3.70;;
83125;SDS011;73488;47.234;-1.540;2024-03-06T06:56:26;8.80;;;3.60;;
83125;SDS011;73488;47.234;-1.540;2024-03-06T06:58:52;5.93;;;2.92;;
83125;SDS011;73488;47.234;-1.540;2024-03-06T07:01:18;7.22;;;2.95;;
83125;SDS011;73488;47.234;-1.540;2024-03-06T07:03:45;6.05;;;3.10;;
83125;SDS011;73488;47.234;-1.540;2024-03-06T07:06:10;6.18;;;2.88;;
83125;SDS011;73488;47.234;-1.540;2024-03-06T07:08:36;10.15;;;3.30;;
83125;SDS011;73488;47.234;-1.540;2024-03-06T07:11:02;8.45;;;3.42;;
83125;SDS011;73488;47.234;-1.540;2024-03-06T07:13:28;5.30;;;2.63;;
83125;SDS011;73488;47.234;-1.540;2024-03-06T07:15:53;5.20;;;2.83;;
83125;SDS011;73488;47.234;-1.540;2024-03-06T07:18:19;5.85;;;2.42;;
83125;SDS011;73488;47.234;-1.540;2024-03-06T07:20:44;8.30;;;2.92;;
83125;SDS011;73488;47.234;-1.540;2024-03-06T07:23:10;5.68;;;2.70;;
83125;SDS011;73488;47.234;-1.540;2024-03-06T07:25:36;6.57;;;2.50;;
83125;SDS011;73488;47.234;-1.540;2024-03-06T07:28:01;6.40;;;3.17;;
83125;SDS011;73488;47.234;-1.540;2024-03-06T07:30:27;7.38;;;2.83;;
83125;SDS011;73488;47.234;-1.540;2024-03-06T07:32:54;5.25;;;2.75;;
83125;SDS011;73488;47.234;-1.540;2024-03-06T07:35:20;6.03;;;3.00;;
83125;SDS011;73488;47.234;-1.540;2024-03-06T07:37:45;6.97;;;2.83;;
83125;SDS011;73488;47.234;-1.540;2024-03-06T07:40:12;6.65;;;2.67;;
83125;SDS011;73488;47.234;-1.540;2024-03-06T07:42:37;5.97;;;2.38;;
83125;SDS011;73488;47.234;-1.540;2024-03-06T07:45:03;5.82;;;2.53;;
83125;SDS011;73488;47.234;-1.540;2024-03-06T07:47:30;6.70;;;2.58;;
83125;SDS011;73488;47.234;-1.540;2024-03-06T07:49:55;4.95;;;2.58;;
83125;SDS011;73488;47.234;-1.540;2024-03-06T07:52:21;5.10;;;2.00;;
83125;SDS011;73488;47.234;-1.540;2024-03-06T07:54:46;7.65;;;3.00;;
83125;SDS011;73488;47.234;-1.540;2024-03-06T07:57:12;5.22;;;2.22;;
83125;SDS011;73488;47.234;-1.540;2024-03-06T07:59:37;4.45;;;2.30;;
83125;SDS011;73488;47.234;-1.540;2024-03-06T08:02:03;6.32;;;2.55;;
83125;SDS011;73488;47.234;-1.540;2024-03-06T08:04:29;5.05;;;2.47;;
83125;SDS011;73488;47.234;-1.540;2024-03-06T08:06:55;6.97;;;2.47;;
83125;SDS011;73488;47.234;-1.540;2024-03-06T08:09:20;4.85;;;2.38;;
83125;SDS011;73488;47.234;-1.540;2024-03-06T08:11:46;3.47;;;2.15;;
83125;SDS011;73488;47.234;-1.540;2024-03-06T08:14:11;5.72;;;2.22;;
83125;SDS011;73488;47.234;-1.540;2024-03-06T08:16:37;4.38;;;2.28;;
83125;SDS011;73488;47.234;-1.540;2024-03-06T08:19:02;4.85;;;2.38;;
83125;SDS011;73488;47.234;-1.540;2024-03-06T08:21:28;4.95;;;2.47;;
83125;SDS011;73488;47.234;-1.540;2024-03-06T08:23:53;5.70;;;2.58;;
83125;SDS011;73488;47.234;-1.540;2024-03-06T08:26:19;4.13;;;2.10;;
83125;SDS011;73488;47.234;-1.540;2024-03-06T08:28:44;4.15;;;2.47;;
83125;SDS011;73488;47.234;-1.540;2024-03-06T08:31:10;8.32;;;2.15;;
83125;SDS011;73488;47.234;-1.540;2024-03-06T08:33:35;6.70;;;2.58;;
83125;SDS011;73488;47.234;-1.540;2024-03-06T08:36:00;6.10;;;2.50;;
83125;SDS011;73488;47.234;-1.540;2024-03-06T08:38:26;4.22;;;2.85;;
83125;SDS011;73488;47.234;-1.540;2024-03-06T08:40:51;5.45;;;2.92;;
83125;SDS011;73488;47.234;-1.540;2024-03-06T08:43:17;5.28;;;2.15;;
83125;SDS011;73488;47.234;-1.540;2024-03-06T08:45:44;4.28;;;1.90;;
83125;SDS011;73488;47.234;-1.540;2024-03-06T08:48:10;5.50;;;2.55;;
83125;SDS011;73488;47.234;-1.540;2024-03-06T08:50:36;7.05;;;2.55;;
83125;SDS011;73488;47.234;-1.540;2024-03-06T08:53:02;5.35;;;2.67;;
83125;SDS011;73488;47.234;-1.540;2024-03-06T08:55:27;8.02;;;2.67;;
83125;SDS011;73488;47.234;-1.540;2024-03-06T08:57:55;6.07;;;2.42;;
83125;SDS011;73488;47.234;-1.540;2024-03-06T09:00:21;5.20;;;2.42;;
83125;SDS011;73488;47.234;-1.540;2024-03-06T09:02:46;3.78;;;2.10;;
83125;SDS011;73488;47.234;-1.540;2024-03-06T09:05:12;5.05;;;2.33;;
83125;SDS011;73488;47.234;-1.540;2024-03-06T09:07:38;5.38;;;2.13;;
83125;SDS011;73488;47.234;-1.540;2024-03-06T09:10:05;3.95;;;2.28;;
83125;SDS011;73488;47.234;-1.540;2024-03-06T09:12:35;4.70;;;2.50;;
83125;SDS011;73488;47.234;-1.540;2024-03-06T09:15:01;6.40;;;2.85;;
83125;SDS011;73488;47.234;-1.540;2024-03-06T09:17:27;4.53;;;2.28;;
83125;SDS011;73488;47.234;-1.540;2024-03-06T09:19:53;5.10;;;2.50;;
83125;SDS011;73488;47.234;-1.540;2024-03-06T09:22:19;6.10;;;2.38;;
83125;SDS011;73488;47.234;-1.540;2024-03-06T09:24:44;4.30;;;2.05;;
83125;SDS011;73488;47.234;-1.540;2024-03-06T09:27:10;6.13;;;2.45;;
83125;SDS011;73488;47.234;-1.540;2024-03-06T09:29:35;3.55;;;2.00;;
83125;SDS011;73488;47.234;-1.540;2024-03-06T09:32:01;4.03;;;2.30;;
83125;SDS011;73488;47.234;-1.540;2024-03-06T09:34:26;4.38;;;2.47;;
83125;SDS011;73488;47.234;-1.540;2024-03-06T09:36:51;4.53;;;2.13;;
83125;SDS011;73488;47.234;-1.540;2024-03-06T09:39:18;4.82;;;2.35;;
83125;SDS011;73488;47.234;-1.540;2024-03-06T09:41:48;5.68;;;2.50;;
83125;SDS011;73488;47.234;-1.540;2024-03-06T09:44:16;4.07;;;2.38;;
83125;SDS011;73488;47.234;-1.540;2024-03-06T09:46:43;4.32;;;2.47;;
83125;SDS011;73488;47.234;-1.540;2024-03-06T09:49:12;4.55;;;2.55;;
83125;SDS011;73488;47.234;-1.540;2024-03-06T09:51:47;4.68;;;2.28;;
83125;SDS011;73488;47.234;-1.540;2024-03-06T09:54:18;4.47;;;2.10;;
83125;SDS011;73488;47.234;-1.540;2024-03-06T09:56:44;5.00;;;2.45;;
83125;SDS011;73488;47.234;-1.540;2024-03-06T09:59:10;4.03;;;2.00;;
83125;SDS011;73488;47.234;-1.540;2024-03-06T10:01:55;5.03;;;2.00;;
83125;SDS011;73488;47.234;-1.540;2024-03-06T10:04:26;4.90;;;2.08;;
83125;SDS011;73488;47.234;-1.540;2024-03-06T10:06:56;5.32;;;2.53;;
83125;SDS011;73488;47.234;-1.540;2024-03-06T10:09:22;3.20;;;2.03;;
83125;SDS011;73488;47.234;-1.540;2024-03-06T10:11:48;3.95;;;2.13;;
83125;SDS011;73488;47.234;-1.540;2024-03-06T10:14:14;4.43;;;2.15;;
83125;SDS011;73488;47.234;-1.540;2024-03-06T10:17:01;2.92;;;1.75;;
83125;SDS011;73488;47.234;-1.540;2024-03-06T10:19:26;4.50;;;2.38;;
83125;SDS011;73488;47.234;-1.540;2024-03-06T10:21:53;3.50;;;1.83;;
83125;SDS011;73488;47.234;-1.540;2024-03-06T10:24:37;3.00;;;1.85;;
83125;SDS011;73488;47.234;-1.540;2024-03-06T10:27:04;3.88;;;2.15;;
83125;SDS011;73488;47.234;-1.540;2024-03-06T10:29:29;3.00;;;1.70;;
83125;SDS011;73488;47.234;-1.540;2024-03-06T10:31:55;3.72;;;1.75;;
83125;SDS011;73488;47.234;-1.540;2024-03-06T10:34:24;4.75;;;2.20;;
83125;SDS011;73488;47.234;-1.540;2024-03-06T10:36:54;3.78;;;2.08;;
83125;SDS011;73488;47.234;-1.540;2024-03-06T10:39:21;3.90;;;1.90;;
83125;SDS011;73488;47.234;-1.540;2024-03-06T10:41:48;3.72;;;2.05;;
83125;SDS011;73488;47.234;-1.540;2024-03-06T10:44:17;3.88;;;1.80;;
83125;SDS011;73488;47.234;-1.540;2024-03-06T10:46:47;4.32;;;1.70;;
83125;SDS011;73488;47.234;-1.540;2024-03-06T10:49:20;3.63;;;1.73;;
83125;SDS011;73488;47.234;-1.540;2024-03-06T10:51:46;3.67;;;1.75;;
83125;SDS011;73488;47.234;-1.540;2024-03-06T10:54:12;3.58;;;1.90;;
83125;SDS011;73488;47.234;-1.540;2024-03-06T10:56:39;3.75;;;2.53;;
83125;SDS011;73488;47.234;-1.540;2024-03-06T10:59:07;4.10;;;1.92;;
83125;SDS011;73488;47.234;-1.540;2024-03-06T11:01:35;2.97;;;1.70;;
83125;SDS011;73488;47.234;-1.540;2024-03-06T11:04:00;2.88;;;1.80;;
83125;SDS011;73488;47.234;-1.540;2024-03-06T11:06:26;3.75;;;1.73;;
83125;SDS011;73488;47.234;-1.540;2024-03-06T11:08:51;3.97;;;2.17;;
83125;SDS011;73488;47.234;-1.540;2024-03-06T11:11:20;2.75;;;1.73;;
83125;SDS011;73488;47.234;-1.540;2024-03-06T11:13:49;3.20;;;1.80;;
83125;SDS011;73488;47.234;-1.540;2024-03-06T11:16:15;3.00;;;1.95;;
83125;SDS011;73488;47.234;-1.540;2024-03-06T11:18:41;3.85;;;1.60;;
83125;SDS011;73488;47.234;-1.540;2024-03-06T11:23:38;4.45;;;2.05;;
83125;SDS011;73488;47.234;-1.540;2024-03-06T11:26:36;3.47;;;1.50;;
83125;SDS011;73488;47.234;-1.540;2024-03-06T11:29:02;3.03;;;1.40;;
83125;SDS011;73488;47.234;-1.540;2024-03-06T11:31:27;3.58;;;1.50;;
83125;SDS011;73488;47.234;-1.540;2024-03-06T11:33:53;3.15;;;1.80;;
83125;SDS011;73488;47.234;-1.540;2024-03-06T11:38:59;3.38;;;1.60;;
83125;SDS011;73488;47.234;-1.540;2024-03-06T11:41:27;2.95;;;1.65;;
83125;SDS011;73488;47.234;-1.540;2024-03-06T11:43:53;2.42;;;1.35;;
83125;SDS011;73488;47.234;-1.540;2024-03-06T11:46:21;2.90;;;1.38;;
83125;SDS011;73488;47.234;-1.540;2024-03-06T11:48:53;2.83;;;1.67;;
83125;SDS011;73488;47.234;-1.540;2024-03-06T11:51:19;3.60;;;1.70;;
83125;SDS011;73488;47.234;-1.540;2024-03-06T11:53:45;3.17;;;1.73;;
83125;SDS011;73488;47.234;-1.540;2024-03-06T11:56:11;2.70;;;1.60;;
83125;SDS011;73488;47.234;-1.540;2024-03-06T11:58:36;2.42;;;1.50;;
83125;SDS011;73488;47.234;-1.540;2024-03-06T12:01:03;2.33;;;1.40;;
83125;SDS011;73488;47.234;-1.540;2024-03-06T12:03:29;4.28;;;1.60;;
83125;SDS011;73488;47.234;-1.540;2024-03-06T12:05:55;3.33;;;1.60;;
83125;SDS011;73488;47.234;-1.540;2024-03-06T12:08:20;2.95;;;1.25;;
83125;SDS011;73488;47.234;-1.540;2024-03-06T12:10:45;2.67;;;1.75;;
83125;SDS011;73488;47.234;-1.540;2024-03-06T12:13:12;3.28;;;1.30;;
83125;SDS011;73488;47.234;-1.540;2024-03-06T12:15:38;2.65;;;1.55;;
83125;SDS011;73488;47.234;-1.540;2024-03-06T12:18:04;2.33;;;1.20;;
83125;SDS011;73488;47.234;-1.540;2024-03-06T12:20:30;2.00;;;1.30;;
83125;SDS011;73488;47.234;-1.540;2024-03-06T12:22:56;3.30;;;1.60;;
83125;SDS011;73488;47.234;-1.540;2024-03-06T12:25:25;2.38;;;1.17;;
83125;SDS011;73488;47.234;-1.540;2024-03-06T12:27:52;2.38;;;1.30;;
83125;SDS011;73488;47.234;-1.540;2024-03-06T12:30:19;3.50;;;1.50;;
83125;SDS011;73488;47.234;-1.540;2024-03-06T12:32:58;2.50;;;1.50;;
83125;SDS011;73488;47.234;-1.540;2024-03-06T12:35:24;2.10;;;1.10;;
83125;SDS011;73488;47.234;-1.540;2024-03-06T12:37:51;2.95;;;1.40;;
83125;SDS011;73488;47.234;-1.540;2024-03-06T12:40:16;3.08;;;1.50;;
83125;SDS011;73488;47.234;-1.540;2024-03-06T12:42:42;2.00;;;1.20;;
83125;SDS011;73488;47.234;-1.540;2024-03-06T12:45:08;2.42;;;1.20;;
83125;SDS011;73488;47.234;-1.540;2024-03-06T12:47:35;2.15;;;1.25;;
83125;SDS011;73488;47.234;-1.540;2024-03-06T12:50:00;1.92;;;1.25;;
83125;SDS011;73488;47.234;-1.540;2024-03-06T12:52:26;1.90;;;1.30;;
83125;SDS011;73488;47.234;-1.540;2024-03-06T12:54:51;3.72;;;1.42;;
83125;SDS011;73488;47.234;-1.540;2024-03-06T12:57:17;2.63;;;1.45;;
83125;SDS011;73488;47.234;-1.540;2024-03-06T12:59:42;2.22;;;1.10;;
83125;SDS011;73488;47.234;-1.540;2024-03-06T13:02:08;2.38;;;1.58;;
83125;SDS011;73488;47.234;-1.540;2024-03-06T13:04:33;1.75;;;1.27;;
83125;SDS011;73488;47.234;-1.540;2024-03-06T13:06:59;2.63;;;1.20;;
83125;SDS011;73488;47.234;-1.540;2024-03-06T13:09:24;1.88;;;1.27;;
83125;SDS011;73488;47.234;-1.540;2024-03-06T13:11:50;1.73;;;1.10;;
83125;SDS011;73488;47.234;-1.540;2024-03-06T13:14:15;2.00;;;1.10;;
83125;SDS011;73488;47.234;-1.540;2024-03-06T13:16:40;1.95;;;1.20;;
83125;SDS011;73488;47.234;-1.540;2024-03-06T13:19:06;2.28;;;1.35;;
83125;SDS011;73488;47.234;-1.540;2024-03-06T13:21:32;2.35;;;1.30;;
83125;SDS011;73488;47.234;-1.540;2024-03-06T13:23:58;1.52;;;1.05;;
83125;SDS011;73488;47.234;-1.540;2024-03-06T13:26:24;3.65;;;1.50;;
83125;SDS011;73488;47.234;-1.540;2024-03-06T13:28:49;1.98;;;1.27;;
83125;SDS011;73488;47.234;-1.540;2024-03-06T13:31:15;2.92;;;1.35;;
83125;SDS011;73488;47.234;-1.540;2024-03-06T13:33:41;2.45;;;1.08;;
83125;SDS011;73488;47.234;-1.540;2024-03-06T13:36:07;1.95;;;1.10;;
83125;SDS011;73488;47.234;-1.540;2024-03-06T13:38:33;1.75;;;1.25;;
83125;SDS011;73488;47.234;-1.540;2024-03-06T13:40:58;2.13;;;1.23;;
83125;SDS011;73488;47.234;-1.540;2024-03-06T13:43:27;1.98;;;1.13;;
83125;SDS011;73488;47.234;-1.540;2024-03-06T13:45:53;2.35;;;1.30;;
83125;SDS011;73488;47.234;-1.540;2024-03-06T13:48:18;2.92;;;1.02;;
83125;SDS011;73488;47.234;-1.540;2024-03-06T13:50:44;2.22;;;1.10;;
83125;SDS011;73488;47.234;-1.540;2024-03-06T13:53:10;1.63;;;0.90;;
83125;SDS011;73488;47.234;-1.540;2024-03-06T13:55:36;1.88;;;1.05;;
83125;SDS011;73488;47.234;-1.540;2024-03-06T13:58:01;2.33;;;1.00;;
83125;SDS011;73488;47.234;-1.540;2024-03-06T14:00:27;2.00;;;0.77;;
83125;SDS011;73488;47.234;-1.540;2024-03-06T14:02:53;2.13;;;1.13;;
83125;SDS011;73488;47.234;-1.540;2024-03-06T14:05:18;2.30;;;0.90;;
83125;SDS011;73488;47.234;-1.540;2024-03-06T14:07:49;1.65;;;1.00;;
83125;SDS011;73488;47.234;-1.540;2024-03-06T14:10:17;1.65;;;1.00;;
83125;SDS011;73488;47.234;-1.540;2024-03-06T14:12:47;1.50;;;0.90;;
83125;SDS011;73488;47.234;-1.540;2024-03-06T14:15:17;2.35;;;0.95;;
83125;SDS011;73488;47.234;-1.540;2024-03-06T14:17:44;1.85;;;0.98;;
83125;SDS011;73488;47.234;-1.540;2024-03-06T14:20:10;2.20;;;1.55;;
83125;SDS011;73488;47.234;-1.540;2024-03-06T14:22:37;3.30;;;1.10;;
83125;SDS011;73488;47.234;-1.540;2024-03-06T14:25:03;2.00;;;1.00;;
83125;SDS011;73488;47.234;-1.540;2024-03-06T14:27:29;2.05;;;0.90;;
83125;SDS011;73488;47.234;-1.540;2024-03-06T14:29:55;1.60;;;1.17;;
83125;SDS011;73488;47.234;-1.540;2024-03-06T14:32:20;1.70;;;1.33;;
83125;SDS011;73488;47.234;-1.540;2024-03-06T14:34:46;1.35;;;0.90;;
83125;SDS011;73488;47.234;-1.540;2024-03-06T14:37:12;1.98;;;1.00;;
83125;SDS011;73488;47.234;-1.540;2024-03-06T14:39:37;1.40;;;0.90;;
83125;SDS011;73488;47.234;-1.540;2024-03-06T14:42:03;2.35;;;1.08;;